Time;durP1;ratioP1;P1;durP2;ratioP2;P2;SDS_P1;SDS_P2;PMS_P1;PMS_P2;Temp;Humidity;BMP_temperature;BMP_pressure;BME280_temperature;BME280_humidity;BME280_pressure;Samples;Min_cycle;Max_cycle;Signal;HPM_P1;HPM_P2
2023/07/02 00:00:19;;;;;;;6.68;4.22;;;;;;;16.91;83.19;97877.94;5031991;28;20037;-82
2023/07/02 00:02:45;;;;;;;7.75;4.72;;;;;;;16.99;82.93;97887.94;5026643;28;20040;-82
2023/07/02 00:05:11;;;;;;;7.25;5.10;;;;;;;16.99;82.94;97890.63;5009112;28;20100;-82
2023/07/02 00:07:37;;;;;;;6.80;5.20;;;;;;;17.00;82.89;97886.84;5028996;28;20872;-82
2023/07/02 00:10:03;;;;;;;5.45;4.70;;;;;;;16.92;82.82;97878.72;5027213;28;20037;-82
2023/07/02 00:12:29;;;;;;;10.85;5.38;;;;;;;17.00;82.96;97883.34;5029248;28;20033;-81
2023/07/02 00:14:54;;;;;;;6.45;5.25;;;;;;;16.89;83.30;97876.66;5030302;28;20045;-82
2023/07/02 00:17:20;;;;;;;6.82;5.32;;;;;;;16.86;82.64;97867.28;5023100;28;20412;-82
2023/07/02 00:19:46;;;;;;;10.75;4.80;;;;;;;16.97;83.15;97873.19;5010553;28;20175;-82
2023/07/02 00:22:11;;;;;;;9.60;5.25;;;;;;;16.85;83.04;97867.59;5030041;28;20034;-82
2023/07/02 00:24:37;;;;;;;10.32;6.28;;;;;;;16.83;82.74;97864.44;5030419;28;20384;-82
2023/07/02 00:27:05;;;;;;;11.00;5.60;;;;;;;16.88;83.01;97877.78;5008536;28;20033;-82
2023/07/02 00:29:31;;;;;;;6.18;5.60;;;;;;;16.90;83.18;97870.16;5007635;28;20049;-82
2023/07/02 00:31:56;;;;;;;7.75;5.50;;;;;;;16.88;83.15;97875.06;5009847;28;20030;-82
2023/07/02 00:34:22;;;;;;;8.32;6.05;;;;;;;16.75;83.70;97876.78;5032764;28;20084;-82
2023/07/02 00:36:47;;;;;;;13.68;6.93;;;;;;;16.61;83.92;97864.50;5033271;28;20036;-82
2023/07/02 00:39:13;;;;;;;10.95;5.95;;;;;;;16.86;83.17;97877.28;5015833;28;20117;-81
2023/07/02 00:41:38;;;;;;;9.45;7.03;;;;;;;16.66;84.33;97867.06;5030897;28;20048;-82
2023/07/02 00:44:04;;;;;;;7.78;6.93;;;;;;;16.84;84.00;97882.19;5000748;28;20036;-82
2023/07/02 00:46:30;;;;;;;8.13;6.45;;;;;;;16.85;83.61;97884.56;5030800;28;20034;-82
2023/07/02 00:48:56;;;;;;;8.05;7.25;;;;;;;16.85;84.02;97887.28;5030824;28;20131;-82
2023/07/02 00:51:27;;;;;;;7.65;6.85;;;;;;;16.87;83.95;97889.66;5027647;28;20488;-82
2023/07/02 00:53:55;;;;;;;13.05;7.82;;;;;;;16.71;83.83;97865.00;5050423;28;20033;-83
2023/07/02 00:56:21;;;;;;;8.55;7.15;;;;;;;16.74;83.87;97874.38;5030518;28;20432;-82
2023/07/02 00:58:50;;;;;;;9.23;6.82;;;;;;;16.76;83.98;97882.94;5035604;28;20033;-82
2023/07/02 01:01:20;;;;;;;9.35;7.60;;;;;;;16.75;83.78;97868.69;5030336;28;20060;-82
2023/07/02 01:03:53;;;;;;;9.00;7.97;;;;;;;16.93;83.74;97886.50;5031866;28;20116;-82
2023/07/02 01:06:24;;;;;;;10.82;8.38;;;;;;;16.41;85.92;97880.09;5036343;28;20028;-82
2023/07/02 01:08:52;;;;;;;9.82;7.57;;;;;;;16.57;84.92;97875.13;5031720;28;20055;-82
2023/07/02 01:11:18;;;;;;;11.10;8.27;;;;;;;16.62;84.91;97888.44;5026966;28;20033;-82
2023/07/02 01:13:44;;;;;;;8.88;8.07;;;;;;;16.59;85.16;97891.75;5033633;28;20144;-82
2023/07/02 01:16:10;;;;;;;10.98;8.80;;;;;;;16.59;84.87;97889.06;5013902;28;20029;-82
2023/07/02 01:18:38;;;;;;;10.20;9.15;;;;;;;16.45;85.26;97872.97;5033361;28;20033;-82
2023/07/02 01:21:06;;;;;;;14.18;10.10;;;;;;;16.58;85.49;97873.22;5034594;28;20029;-82
2023/07/02 01:23:33;;;;;;;12.40;10.65;;;;;;;16.52;84.58;97861.78;5027502;28;20025;-82
2023/07/02 01:25:59;;;;;;;11.82;10.48;;;;;;;16.44;85.01;97867.91;5024987;28;20133;-82
2023/07/02 01:28:27;;;;;;;13.27;10.70;;;;;;;16.49;85.06;97884.72;5033568;28;20108;-82
2023/07/02 01:30:53;;;;;;;12.15;10.75;;;;;;;16.51;85.16;97897.13;5029371;28;20103;-82
2023/07/02 01:33:18;;;;;;;15.10;12.20;;;;;;;16.44;85.18;97882.16;5021969;28;20476;-82
2023/07/02 01:35:44;;;;;;;12.27;10.45;;;;;;;16.64;84.84;97897.03;5030572;28;20461;-82
2023/07/02 01:38:13;;;;;;;13.43;11.52;;;;;;;16.54;84.72;97893.78;5024612;28;20431;-82
2023/07/02 01:40:38;;;;;;;13.10;10.88;;;;;;;16.50;85.22;97899.00;5031419;28;20036;-82
2023/07/02 01:43:03;;;;;;;16.77;10.95;;;;;;;16.56;84.63;97883.50;5032969;28;20025;-82
2023/07/02 01:45:29;;;;;;;16.52;13.02;;;;;;;16.66;84.13;97880.53;5022926;28;20037;-83
2023/07/02 01:47:54;;;;;;;14.95;11.07;;;;;;;16.47;84.37;97873.44;5031886;28;20527;-82
2023/07/02 01:50:20;;;;;;;11.50;10.27;;;;;;;16.67;84.62;97887.50;5016656;28;20140;-82
2023/07/02 01:52:46;;;;;;;15.15;13.60;;;;;;;16.58;84.29;97894.78;5011736;28;20056;-82
2023/07/02 01:55:11;;;;;;;15.35;11.32;;;;;;;16.56;84.26;97888.88;5006146;28;20025;-81
2023/07/02 01:57:36;;;;;;;15.77;11.35;;;;;;;16.67;84.17;97888.31;5038659;28;20420;-82
2023/07/02 02:00:02;;;;;;;13.43;12.07;;;;;;;16.45;84.69;97894.50;5030265;28;20112;-82
2023/07/02 02:02:28;;;;;;;16.98;11.50;;;;;;;16.47;84.57;97891.50;5028377;28;20543;-81
2023/07/02 02:04:53;;;;;;;13.73;12.25;;;;;;;16.61;84.56;97907.63;5027623;28;20112;-82
2023/07/02 02:07:19;;;;;;;16.13;12.10;;;;;;;16.52;84.69;97896.00;5025673;28;20519;-82
2023/07/02 02:09:44;;;;;;;16.27;12.38;;;;;;;16.50;84.44;97888.22;5029813;28;20100;-82
2023/07/02 02:12:10;;;;;;;16.58;13.02;;;;;;;16.56;84.78;97907.75;5029377;28;20036;-83
2023/07/02 02:14:35;;;;;;;15.10;11.52;;;;;;;16.46;84.78;97912.28;5015120;28;20083;-82
2023/07/02 02:17:00;;;;;;;18.52;13.30;;;;;;;16.43;84.75;97896.72;5026234;28;20396;-81
2023/07/02 02:19:28;;;;;;;16.50;12.07;;;;;;;16.48;84.17;97885.03;5025341;28;20583;-82
2023/07/02 02:21:54;;;;;;;14.00;12.50;;;;;;;16.64;84.17;97907.81;5025073;28;20713;-82
2023/07/02 02:24:19;;;;;;;15.88;11.82;;;;;;;16.47;84.45;97905.78;5010847;28;20021;-82
2023/07/02 02:26:45;;;;;;;15.68;12.85;;;;;;;16.49;84.06;97902.75;5028796;28;20080;-82
2023/07/02 02:29:10;;;;;;;14.25;11.88;;;;;;;16.43;84.56;97912.88;5012575;28;20116;-82
2023/07/02 02:31:35;;;;;;;12.93;10.95;;;;;;;16.48;84.22;97912.75;5027752;28;20383;-82
2023/07/02 02:34:01;;;;;;;12.73;10.95;;;;;;;16.52;83.84;97907.56;5026111;28;20037;-82
2023/07/02 02:36:26;;;;;;;13.00;11.45;;;;;;;16.60;84.10;97901.41;5002941;28;20037;-82
2023/07/02 02:38:51;;;;;;;13.13;11.80;;;;;;;16.51;83.84;97903.31;5006316;28;20030;-83
2023/07/02 02:41:17;;;;;;;12.35;11.10;;;;;;;16.54;83.72;97901.88;5027352;28;20063;-82
2023/07/02 02:43:43;;;;;;;13.25;11.85;;;;;;;16.52;83.89;97914.84;5023991;28;20532;-82
2023/07/02 02:46:12;;;;;;;13.20;11.85;;;;;;;16.49;83.75;97906.25;5021962;28;20025;-83
2023/07/02 02:48:38;;;;;;;17.38;12.10;;;;;;;16.34;84.35;97887.00;5030200;28;20026;-83
2023/07/02 02:51:03;;;;;;;18.33;13.50;;;;;;;16.26;84.61;97898.53;5030082;28;20036;-83
2023/07/02 02:53:29;;;;;;;15.60;12.43;;;;;;;16.40;84.36;97899.25;5008241;28;20040;-80
2023/07/02 02:55:54;;;;;;;13.13;11.90;;;;;;;16.28;83.98;97890.94;5029101;28;20037;-81
2023/07/02 02:58:19;;;;;;;14.13;12.23;;;;;;;16.37;84.38;97910.63;5006325;28;20440;-82
2023/07/02 03:00:45;;;;;;;12.25;11.05;;;;;;;16.15;84.38;97879.16;5030196;28;20491;-82
2023/07/02 03:03:14;;;;;;;12.32;11.05;;;;;;;16.27;84.77;97892.81;5017441;28;20033;-82
2023/07/02 03:05:40;;;;;;;12.90;11.60;;;;;;;16.28;84.43;97896.31;5026044;28;20057;-82
2023/07/02 03:08:05;;;;;;;16.80;12.15;;;;;;;16.12;84.61;97906.66;5013805;28;20107;-82
2023/07/02 03:10:31;;;;;;;13.48;11.55;;;;;;;16.22;84.41;97917.22;5030244;28;20485;-82
2023/07/02 03:12:58;;;;;;;12.32;11.13;;;;;;;16.10;84.56;97892.72;5029821;28;20157;-82
2023/07/02 03:15:24;;;;;;;15.90;11.52;;;;;;;16.22;84.45;97905.63;5025190;28;20053;-82
2023/07/02 03:17:49;;;;;;;12.70;11.40;;;;;;;16.20;84.10;97911.34;5036682;28;20056;-82
2023/07/02 03:20:15;;;;;;;11.93;10.60;;;;;;;16.16;84.77;97912.25;5008539;28;20054;-82
2023/07/02 03:22:40;;;;;;;12.80;11.43;;;;;;;16.24;83.84;97920.38;5024439;28;20037;-82
2023/07/02 03:25:06;;;;;;;14.82;10.98;;;;;;;16.22;84.08;97922.59;5023245;28;20028;-82
2023/07/02 03:27:31;;;;;;;11.35;10.25;;;;;;;16.20;84.46;97927.50;5030487;28;20492;-82
2023/07/02 03:29:56;;;;;;;17.52;10.85;;;;;;;16.26;84.28;97912.78;5023364;28;20040;-83
2023/07/02 03:32:22;;;;;;;15.15;11.40;;;;;;;16.22;83.83;97906.44;5031235;28;20033;-82
2023/07/02 03:34:47;;;;;;;13.02;9.65;;;;;;;16.28;83.23;97899.00;5027767;28;20026;-83
2023/07/02 03:37:13;;;;;;;12.82;11.13;;;;;;;16.35;83.31;97900.19;5024843;28;20040;-82
2023/07/02 03:39:38;;;;;;;15.82;9.35;;;;;;;16.30;83.89;97886.84;5031239;28;20036;-82
2023/07/02 03:42:05;;;;;;;15.10;10.55;;;;;;;16.23;83.88;97899.94;5019541;28;20080;-82
2023/07/02 03:44:31;;;;;;;11.40;9.00;;;;;;;16.18;83.71;97881.22;5020436;28;20510;-83
2023/07/02 03:46:56;;;;;;;14.65;9.73;;;;;;;16.14;83.88;97888.31;5004786;28;20057;-82
2023/07/02 03:49:21;;;;;;;9.07;8.27;;;;;;;16.15;83.52;97889.91;5025424;28;20598;-82
2023/07/02 03:51:47;;;;;;;12.18;9.35;;;;;;;16.05;84.19;97895.56;5023796;28;20404;-82
2023/07/02 03:54:12;;;;;;;10.45;8.27;;;;;;;16.13;83.93;97892.13;5029319;28;20036;-82
2023/07/02 03:56:38;;;;;;;10.35;8.60;;;;;;;16.15;84.01;97903.38;5022887;28;20033;-82
2023/07/02 03:59:03;;;;;;;9.35;8.32;;;;;;;16.02;83.55;97898.84;5013240;28;20060;-81
2023/07/02 04:01:29;;;;;;;9.70;8.80;;;;;;;16.15;83.92;97911.44;5009658;28;20121;-82
2023/07/02 04:03:56;;;;;;;10.95;8.20;;;;;;;15.90;84.14;97890.53;5027558;28;20038;-82
2023/07/02 04:06:21;;;;;;;9.60;7.90;;;;;;;16.01;84.16;97908.00;5022649;28;20037;-82
2023/07/02 04:08:47;;;;;;;8.65;7.70;;;;;;;16.08;84.38;97912.97;5002012;28;20048;-82
2023/07/02 04:11:12;;;;;;;10.57;8.23;;;;;;;15.98;83.93;97900.56;5009730;28;20128;-83
2023/07/02 04:13:38;;;;;;;12.35;7.63;;;;;;;16.10;83.75;97908.06;5026357;28;20044;-83
2023/07/02 04:16:04;;;;;;;8.55;6.72;;;;;;;16.14;83.58;97923.31;5027469;28;20049;-82
2023/07/02 04:18:30;;;;;;;8.63;7.13;;;;;;;16.13;83.13;97939.78;5026156;28;20040;-83
2023/07/02 04:20:56;;;;;;;7.38;6.68;;;;;;;15.83;83.72;97900.94;5026112;28;20033;-82
2023/07/02 04:23:22;;;;;;;8.43;7.47;;;;;;;16.01;84.04;97945.69;5025442;28;20112;-82
2023/07/02 04:25:47;;;;;;;10.38;6.63;;;;;;;15.58;84.90;97939.97;5035210;28;20555;-82
2023/07/02 04:28:13;;;;;;;11.80;7.53;;;;;;;15.66;85.45;97946.53;5023992;28;20141;-82
2023/07/02 04:30:38;;;;;;;8.32;6.70;;;;;;;15.66;85.36;97943.84;5026956;28;20845;-82
2023/07/02 04:33:05;;;;;;;10.10;7.40;;;;;;;15.92;85.10;97957.53;5041806;28;20424;-82
2023/07/02 04:35:31;;;;;;;6.72;6.13;;;;;;;16.06;84.25;97953.66;5025736;28;20029;-82
2023/07/02 04:37:57;;;;;;;9.60;7.30;;;;;;;16.20;83.21;97932.88;5026330;28;20057;-82
2023/07/02 04:40:22;;;;;;;8.90;6.03;;;;;;;16.52;82.34;97945.28;5025450;28;20056;-82
2023/07/02 04:42:48;;;;;;;8.48;6.10;;;;;;;16.46;81.94;97944.59;5021381;28;20068;-83
2023/07/02 04:45:15;;;;;;;10.93;5.95;;;;;;;16.45;82.35;97952.97;5023419;28;20113;-82
2023/07/02 04:47:45;;;;;;;7.38;5.75;;;;;;;16.53;82.60;97973.84;5037480;28;20732;-82
2023/07/02 04:50:14;;;;;;;7.85;5.80;;;;;;;16.42;82.91;97969.78;5036436;28;20162;-81
2023/07/02 04:52:39;;;;;;;11.38;5.72;;;;;;;16.42;82.77;97967.06;5029968;28;20049;-83
2023/07/02 04:55:06;;;;;;;8.65;5.32;;;;;;;16.27;83.08;97967.44;4994203;28;20032;-82
2023/07/02 04:57:31;;;;;;;6.95;5.53;;;;;;;16.19;83.24;97974.34;5026608;28;20052;-83
2023/07/02 04:59:57;;;;;;;6.53;5.72;;;;;;;16.17;83.65;97973.88;5037126;28;21214;-82
2023/07/02 05:02:22;;;;;;;9.48;5.75;;;;;;;16.20;83.71;97984.03;5021610;28;20033;-82
2023/07/02 05:04:48;;;;;;;8.75;6.22;;;;;;;16.17;83.66;97970.38;5027603;28;20036;-82
2023/07/02 05:07:13;;;;;;;9.30;5.90;;;;;;;16.05;83.82;97948.59;5008924;28;20063;-82
2023/07/02 05:09:39;;;;;;;6.93;6.32;;;;;;;16.22;84.40;97976.44;5027638;28;20040;-82
2023/07/02 05:12:04;;;;;;;6.68;6.03;;;;;;;15.99;84.14;97953.28;5025406;28;20037;-82
2023/07/02 05:14:30;;;;;;;5.97;5.40;;;;;;;16.23;83.43;97983.41;5026792;28;20092;-82
2023/07/02 05:16:55;;;;;;;6.65;5.85;;;;;;;16.11;83.58;97968.91;5003825;28;20029;-83
2023/07/02 05:19:21;;;;;;;10.35;7.13;;;;;;;16.00;84.42;97968.34;5010689;28;20144;-82
2023/07/02 05:21:46;;;;;;;6.75;6.03;;;;;;;16.20;83.61;97975.16;5023557;28;20034;-82
2023/07/02 05:24:11;;;;;;;7.97;6.60;;;;;;;16.22;83.70;97965.69;5040521;28;20025;-82
2023/07/02 05:26:37;;;;;;;7.65;6.30;;;;;;;16.10;83.25;97949.25;5014931;28;20093;-82
2023/07/02 05:29:02;;;;;;;9.23;6.90;;;;;;;16.09;83.58;97950.38;5015836;28;20029;-82
2023/07/02 05:31:28;;;;;;;6.63;6.05;;;;;;;16.03;84.23;97951.56;5029794;28;20033;-82
2023/07/02 05:33:54;;;;;;;10.52;6.80;;;;;;;16.22;83.26;97965.69;5048516;28;20021;-82
2023/07/02 05:36:20;;;;;;;8.50;6.20;;;;;;;16.24;83.09;97968.06;5035021;28;20064;-82
2023/07/02 05:38:46;;;;;;;8.85;7.13;;;;;;;16.32;83.37;97978.06;5033575;28;20032;-82
2023/07/02 05:41:18;;;;;;;10.40;7.38;;;;;;;16.19;83.25;97966.28;5034753;28;20392;-82
2023/07/02 05:43:43;;;;;;;13.98;6.78;;;;;;;16.26;83.17;97977.41;5023996;28;20081;-82
2023/07/02 05:46:08;;;;;;;7.90;7.13;;;;;;;16.36;83.12;97987.94;5027426;28;20033;-82
2023/07/02 05:48:34;;;;;;;7.35;6.75;;;;;;;16.36;83.14;97979.84;5029307;28;20037;-81
2023/07/02 05:50:59;;;;;;;12.23;7.15;;;;;;;16.23;83.35;97971.84;5032923;28;20162;-81
2023/07/02 05:53:24;;;;;;;10.35;6.68;;;;;;;16.24;82.95;97984.22;5009275;28;20581;-82
2023/07/02 05:55:50;;;;;;;7.22;6.03;;;;;;;16.30;83.19;97989.16;5031466;28;20029;-82
2023/07/02 05:58:15;;;;;;;6.70;6.03;;;;;;;16.28;83.08;97987.88;5030601;28;20171;-83
2023/07/02 06:00:41;;;;;;;9.07;6.78;;;;;;;16.21;83.14;97996.38;5018722;28;20041;-82
2023/07/02 06:03:07;;;;;;;9.13;6.28;;;;;;;16.25;82.39;97991.19;5030146;28;20040;-82
2023/07/02 06:05:32;;;;;;;7.60;6.97;;;;;;;16.27;82.53;98005.16;5023071;28;20037;-81
2023/07/02 06:07:58;;;;;;;10.05;7.03;;;;;;;16.36;82.17;98006.78;5011863;28;20057;-81
2023/07/02 06:10:23;;;;;;;12.45;7.28;;;;;;;16.35;82.46;98009.81;5032055;28;20033;-81
2023/07/02 06:12:49;;;;;;;9.18;7.75;;;;;;;16.37;82.10;98019.16;5018489;28;20087;-81
2023/07/02 06:15:14;;;;;;;9.52;7.55;;;;;;;16.26;82.20;98007.03;5035000;28;20021;-82
2023/07/02 06:17:40;;;;;;;7.57;6.75;;;;;;;16.28;81.68;97990.56;5015851;28;20032;-82
2023/07/02 06:20:06;;;;;;;7.68;6.88;;;;;;;16.38;81.64;98020.75;5013804;28;20072;-82
2023/07/02 06:22:31;;;;;;;11.23;8.05;;;;;;;16.37;81.98;98021.88;5030369;28;20037;-82
2023/07/02 06:24:57;;;;;;;8.40;7.55;;;;;;;16.14;82.44;98004.06;5031024;28;20029;-81
2023/07/02 06:27:22;;;;;;;11.40;8.18;;;;;;;16.43;81.00;98031.41;5016679;28;20049;-81
2023/07/02 06:29:48;;;;;;;9.38;8.15;;;;;;;16.39;81.33;98024.25;5033982;28;20547;-81
2023/07/02 06:32:13;;;;;;;10.52;8.63;;;;;;;16.40;80.46;98018.53;5043779;28;20067;-81
2023/07/02 06:34:39;;;;;;;14.85;9.48;;;;;;;16.42;80.99;98029.81;5026487;28;20057;-81
2023/07/02 06:37:04;;;;;;;13.38;8.50;;;;;;;16.42;80.69;98029.81;5026134;28;20148;-82
2023/07/02 06:39:30;;;;;;;12.50;9.57;;;;;;;16.41;81.16;98020.16;5015952;28;20897;-81
2023/07/02 06:41:55;;;;;;;15.63;9.45;;;;;;;16.43;81.30;98042.19;5010528;28;20079;-82
2023/07/02 06:44:21;;;;;;;13.68;10.18;;;;;;;16.33;81.09;98031.66;5029694;28;20033;-81
2023/07/02 06:46:46;;;;;;;13.57;8.82;;;;;;;16.44;80.78;98042.97;5027768;28;20096;-81
2023/07/02 06:49:11;;;;;;;12.95;9.43;;;;;;;16.48;80.65;98038.56;5009773;28;20214;-81
2023/07/02 06:51:37;;;;;;;21.38;10.82;;;;;;;16.30;81.61;98026.88;5014517;28;20029;-81
2023/07/02 06:54:02;;;;;;;12.55;10.52;;;;;;;16.24;81.71;98033.47;5000434;28;20045;-81
2023/07/02 06:56:28;;;;;;;14.05;9.63;;;;;;;16.56;80.66;98045.13;5024383;28;20029;-81
2023/07/02 06:58:53;;;;;;;12.95;9.57;;;;;;;16.44;80.30;98033.00;5041636;28;20129;-81
2023/07/02 07:01:20;;;;;;;15.73;11.23;;;;;;;16.48;79.48;98044.75;5033850;28;20488;-81
2023/07/02 07:03:45;;;;;;;16.92;10.65;;;;;;;16.48;79.36;98034.00;5031657;28;20587;-83
2023/07/02 07:06:11;;;;;;;19.00;11.40;;;;;;;16.61;79.01;98048.53;5017761;28;20064;-82
2023/07/02 07:08:38;;;;;;;18.58;12.80;;;;;;;16.66;79.02;98043.03;5026997;28;20065;-82
2023/07/02 07:11:04;;;;;;;19.40;11.00;;;;;;;16.52;78.26;98044.97;5029610;28;20545;-80
2023/07/02 07:13:29;;;;;;;12.25;10.45;;;;;;;16.64;78.12;98044.41;5030525;28;20116;-80
2023/07/02 07:15:57;;;;;;;13.48;10.35;;;;;;;16.73;77.09;98051.44;5028325;28;20079;-81
2023/07/02 07:18:23;;;;;;;21.40;12.23;;;;;;;16.65;76.73;98051.38;5033166;28;20087;-81
2023/07/02 07:20:48;;;;;;;22.63;13.05;;;;;;;16.68;76.29;98056.19;5030383;28;20084;-83
2023/07/02 07:23:16;;;;;;;21.05;11.90;;;;;;;16.68;76.17;98065.06;5027712;28;20045;-83
2023/07/02 07:25:42;;;;;;;21.02;11.35;;;;;;;16.66;75.54;98072.66;5016577;28;20045;-82
2023/07/02 07:28:11;;;;;;;16.33;10.80;;;;;;;16.76;74.86;98058.13;5044334;28;20523;-83
2023/07/02 07:30:37;;;;;;;22.55;12.68;;;;;;;16.68;75.15;98045.41;5028324;28;20025;-80
2023/07/02 07:33:02;;;;;;;24.10;12.82;;;;;;;16.68;75.15;98053.47;5006644;28;20476;-81
2023/07/02 07:35:28;;;;;;;25.23;12.60;;;;;;;16.74;74.48;98060.34;5026167;28;20037;-81
2023/07/02 07:37:53;;;;;;;22.17;13.43;;;;;;;16.79;75.38;98057.53;5024167;28;20117;-81
2023/07/02 07:40:18;;;;;;;23.38;12.40;;;;;;;16.86;74.41;98055.19;5025004;28;20037;-82
2023/07/02 07:42:44;;;;;;;23.50;11.90;;;;;;;16.89;74.30;98058.06;5014425;28;20045;-82
2023/07/02 07:45:11;;;;;;;22.30;11.23;;;;;;;16.93;73.87;98037.47;5011466;28;20034;-82
2023/07/02 07:47:36;;;;;;;22.08;12.02;;;;;;;17.11;73.39;98065.31;5017608;28;20753;-82
2023/07/02 07:50:02;;;;;;;27.45;13.63;;;;;;;17.00;73.55;98058.59;5025571;28;20147;-82
2023/07/02 07:52:27;;;;;;;22.45;12.60;;;;;;;17.02;73.92;98064.47;5025315;28;20113;-82
2023/07/02 07:54:53;;;;;;;25.65;13.52;;;;;;;17.18;73.35;98066.47;5023040;28;20421;-81
2023/07/02 07:57:18;;;;;;;19.65;11.95;;;;;;;17.21;73.30;98063.13;4992750;28;20041;-82
2023/07/02 07:59:44;;;;;;;23.13;13.68;;;;;;;16.99;73.68;98057.00;5026043;28;20434;-82
2023/07/02 08:02:09;;;;;;;21.75;13.75;;;;;;;17.17;72.68;98074.84;5029578;28;20056;-81
2023/07/02 08:04:34;;;;;;;23.58;12.38;;;;;;;17.17;72.12;98072.16;5008391;28;20035;-82
2023/07/02 08:07:04;;;;;;;24.20;12.65;;;;;;;17.06;70.95;98068.94;5023143;28;20060;-82
2023/07/02 08:09:29;;;;;;;26.25;12.23;;;;;;;17.22;70.42;98085.50;5023522;28;20056;-82
2023/07/02 08:11:55;;;;;;;23.45;11.93;;;;;;;17.08;70.12;98085.59;5029766;28;20084;-82
2023/07/02 08:14:20;;;;;;;19.95;11.77;;;;;;;17.04;69.91;98078.44;5004914;28;20164;-82
2023/07/02 08:16:46;;;;;;;28.10;12.10;;;;;;;17.23;69.72;98081.72;5028437;28;20959;-82
2023/07/02 08:19:14;;;;;;;24.25;11.02;;;;;;;17.10;69.67;98078.00;5008828;28;20043;-82
2023/07/02 08:21:40;;;;;;;25.23;12.40;;;;;;;17.12;69.09;98097.34;5029418;28;20032;-83
2023/07/02 08:24:06;;;;;;;24.80;11.63;;;;;;;17.13;69.68;98100.84;5026057;28;20037;-82
2023/07/02 08:26:31;;;;;;;22.75;12.35;;;;;;;17.20;68.72;98104.72;4987577;28;20057;-82
2023/07/02 08:28:57;;;;;;;25.00;12.18;;;;;;;17.17;69.33;98101.81;5022201;28;20531;-82
2023/07/02 08:31:22;;;;;;;23.42;11.55;;;;;;;17.28;67.49;98099.69;5024661;28;20104;-82
2023/07/02 08:33:47;;;;;;;25.50;12.68;;;;;;;17.29;67.69;98115.56;5024414;28;20115;-81
2023/07/02 08:36:16;;;;;;;29.08;12.18;;;;;;;17.30;67.45;98108.25;4993216;28;20506;-81
2023/07/02 08:38:43;;;;;;;25.83;13.00;;;;;;;17.35;67.83;98106.22;5038721;28;20440;-82
2023/07/02 08:41:08;;;;;;;22.20;11.30;;;;;;;17.48;66.38;98089.13;5021426;28;20105;-82
2023/07/02 08:43:35;;;;;;;26.75;12.68;;;;;;;17.76;65.85;98117.53;5035273;28;20110;-81
2023/07/02 08:46:01;;;;;;;22.65;11.48;;;;;;;17.90;65.88;98112.81;5010910;28;20108;-83
2023/07/02 08:48:29;;;;;;;26.25;11.88;;;;;;;18.00;66.36;98113.63;5027751;28;20112;-82
2023/07/02 08:50:55;;;;;;;29.27;12.70;;;;;;;18.06;65.15;98115.88;5019270;28;20033;-82
2023/07/02 08:53:25;;;;;;;24.92;12.15;;;;;;;18.16;65.79;98122.88;5030658;28;20025;-82
2023/07/02 08:55:50;;;;;;;23.48;11.70;;;;;;;18.10;64.93;98099.81;5024757;28;20055;-82
2023/07/02 08:58:16;;;;;;;28.77;12.68;;;;;;;18.17;64.17;98111.78;5027558;28;20543;-82
2023/07/02 09:01:04;;;;;;;22.95;11.23;;;;;;;18.46;64.10;98130.09;5043370;28;20487;-82
2023/07/02 09:03:30;;;;;;;24.88;12.23;;;;;;;18.36;64.00;98135.78;5044979;28;20044;-82
2023/07/02 09:05:55;;;;;;;23.63;12.60;;;;;;;18.33;63.99;98128.28;5029904;28;20088;-82
2023/07/02 09:08:28;;;;;;;24.67;12.90;;;;;;;18.24;63.71;98114.00;5015090;28;20761;-82
2023/07/02 09:10:54;;;;;;;28.80;12.93;;;;;;;18.33;63.40;98125.59;5023454;28;20036;-83
2023/07/02 09:13:20;;;;;;;26.20;13.18;;;;;;;18.44;64.12;98122.31;5009455;28;20087;-82
2023/07/02 09:15:45;;;;;;;24.65;12.68;;;;;;;18.51;63.77;98125.34;5035832;28;20034;-81
2023/07/02 09:18:21;;;;;;;20.73;11.77;;;;;;;18.46;64.65;98119.28;5033469;28;20099;-82
2023/07/02 09:20:51;;;;;;;21.15;11.50;;;;;;;18.27;63.80;98111.47;5033996;28;20044;-82
2023/07/02 09:23:16;;;;;;;28.23;13.27;;;;;;;18.54;62.94;98129.31;5045580;28;20029;-83
2023/07/02 09:25:42;;;;;;;24.58;12.20;;;;;;;18.52;63.52;98123.44;5039399;28;20052;-82
2023/07/02 09:28:23;;;;;;;24.25;12.38;;;;;;;18.58;64.12;98135.69;5020312;28;20083;-82
2023/07/02 09:30:55;;;;;;;19.27;12.73;;;;;;;18.43;62.90;98133.41;5017749;28;20657;-82
2023/07/02 09:33:28;;;;;;;20.33;12.05;;;;;;;18.30;62.80;98110.84;5033048;28;20124;-82
2023/07/02 09:35:55;;;;;;;24.67;13.45;;;;;;;18.26;63.34;98128.00;5031260;28;20029;-81
2023/07/02 09:38:21;;;;;;;18.92;13.43;;;;;;;18.33;62.91;98133.69;5030301;28;20022;-82
2023/07/02 09:40:50;;;;;;;21.50;12.48;;;;;;;18.15;63.52;98116.66;5037870;28;20037;-82
2023/07/02 09:43:19;;;;;;;20.23;12.52;;;;;;;18.24;63.23;98132.91;5028254;28;20026;-81
2023/07/02 09:45:46;;;;;;;25.70;13.88;;;;;;;18.23;64.09;98142.91;5032542;28;20078;-81
2023/07/02 09:48:16;;;;;;;24.58;14.05;;;;;;;18.34;62.68;98136.09;5026760;28;20033;-82
2023/07/02 09:50:44;;;;;;;25.77;14.05;;;;;;;18.14;62.53;98136.69;5031574;28;20033;-82
2023/07/02 09:53:10;;;;;;;24.75;14.18;;;;;;;18.33;61.93;98131.00;5013577;28;20530;-81
2023/07/02 09:55:39;;;;;;;24.40;14.65;;;;;;;18.57;62.02;98132.19;5043232;28;20034;-81
2023/07/02 09:58:05;;;;;;;22.63;13.57;;;;;;;18.72;61.76;98140.94;5029953;28;20449;-81
2023/07/02 10:00:31;;;;;;;24.67;13.95;;;;;;;18.80;61.42;98124.72;5043969;28;20091;-81
2023/07/02 10:02:57;;;;;;;25.73;15.35;;;;;;;18.94;60.69;98138.03;4997659;28;20103;-81
2023/07/02 10:05:29;;;;;;;23.08;13.23;;;;;;;19.06;60.76;98143.63;5027932;28;20067;-81
2023/07/02 10:08:11;;;;;;;23.77;15.20;;;;;;;19.00;60.99;98140.25;5013984;28;20037;-81
2023/07/02 10:10:36;;;;;;;23.55;13.93;;;;;;;19.00;60.97;98139.50;5028355;28;20457;-81
2023/07/02 10:13:02;;;;;;;28.33;14.85;;;;;;;19.08;60.19;98135.97;5040804;28;20035;-81
2023/07/02 10:15:29;;;;;;;27.73;14.98;;;;;;;19.36;58.77;98132.59;5031482;28;20029;-81
2023/07/02 10:17:58;;;;;;;22.48;14.18;;;;;;;19.69;59.37;98145.53;5025350;28;20037;-81
2023/07/02 10:20:33;;;;;;;23.67;13.43;;;;;;;19.81;58.24;98149.16;5033106;28;20021;-81
2023/07/02 10:23:01;;;;;;;27.33;14.75;;;;;;;19.69;58.51;98159.88;5032517;28;20466;-82
2023/07/02 10:25:33;;;;;;;23.63;12.48;;;;;;;19.59;58.78;98154.03;5035948;28;20037;-82
2023/07/02 10:27:59;;;;;;;24.48;13.25;;;;;;;19.51;57.53;98147.50;5022891;28;20096;-81
2023/07/02 10:30:32;;;;;;;25.85;14.25;;;;;;;19.69;58.05;98140.13;5010379;28;20033;-82
2023/07/02 10:33:12;;;;;;;27.52;14.88;;;;;;;19.68;57.89;98144.75;5029097;28;20424;-82
2023/07/02 10:35:39;;;;;;;27.70;15.00;;;;;;;19.68;58.12;98152.09;5020602;28;20489;-83
2023/07/02 10:38:06;;;;;;;19.48;13.02;;;;;;;19.46;57.82;98142.28;5028173;28;20052;-82
2023/07/02 10:40:33;;;;;;;24.48;13.93;;;;;;;19.68;58.05;98133.16;5028917;28;20432;-82
2023/07/02 10:42:59;;;;;;;27.70;15.02;;;;;;;19.77;57.73;98150.94;5034347;28;20021;-82
2023/07/02 10:45:32;;;;;;;23.80;14.23;;;;;;;19.99;57.14;98141.75;5024779;28;20093;-82
2023/07/02 10:47:58;;;;;;;29.00;14.60;;;;;;;20.05;57.09;98151.28;5011955;28;20028;-82
2023/07/02 10:50:24;;;;;;;29.92;14.90;;;;;;;20.17;57.27;98163.00;5028137;28;20403;-82
2023/07/02 10:52:52;;;;;;;29.77;13.27;;;;;;;19.86;58.67;98145.47;5011135;28;20033;-82
2023/07/02 10:55:22;;;;;;;27.27;14.18;;;;;;;20.14;57.07;98165.56;5027592;28;20064;-81
2023/07/02 10:57:50;;;;;;;23.77;14.73;;;;;;;20.41;56.76;98175.97;5038900;28;20029;-80
2023/07/02 11:00:17;;;;;;;26.17;13.85;;;;;;;20.30;56.85;98166.63;5037337;28;20045;-81
2023/07/02 11:02:43;;;;;;;26.73;14.30;;;;;;;20.36;56.99;98165.31;5029079;28;20033;-81
2023/07/02 11:05:12;;;;;;;25.88;14.88;;;;;;;20.47;56.99;98165.72;5028140;28;20120;-82
2023/07/02 11:07:41;;;;;;;25.02;14.18;;;;;;;20.78;57.28;98169.66;5022842;28;20087;-82
2023/07/02 11:10:08;;;;;;;30.27;15.27;;;;;;;20.78;56.73;98166.16;5020744;28;20493;-82
2023/07/02 11:12:34;;;;;;;26.55;14.40;;;;;;;20.17;57.27;98170.34;5020465;28;21057;-82
2023/07/02 11:15:10;;;;;;;28.25;14.80;;;;;;;20.07;57.57;98171.50;5017524;28;20033;-80
2023/07/02 11:17:36;;;;;;;25.45;15.65;;;;;;;19.79;57.32;98183.13;5023740;28;20052;-80